<?xml version='1.0' encoding='UTF-8'?>
<gpx xmlns="http://www.topografix.com/GPX/1/1" creator="www.balnam.be" version="1.1" xmlns:xsi="http://www.w3.org/2001/XMLSchema-instance" xsi:schemaLocation="http://www.topografix.com/GPX/1/1 http://www.topografix.com/GPX/1/1/gpx.xsd">
<trk>
<name>lvbff2</name>
<cmt>s</cmt>
<desc>Fize-Fontaine Chemin n°2 Rue Grande Ruelle / Rue Chalais</desc>
<link href="https://chemins.be/fizefontaine/chemin/2"/><trkseg>
<trkpt lat="50.599368" lon="5.276021"><time>2026-05-02T22:02:48Z</time></trkpt>
<trkpt lat="50.598315" lon="5.276156"><time>2026-05-02T22:12:48Z</time></trkpt>
<trkpt lat="50.596435" lon="5.277448"><time>2026-05-02T22:22:48Z</time></trkpt>
<trkpt lat="50.593251" lon="5.278855"><time>2026-05-02T22:32:48Z</time></trkpt>
<trkpt lat="50.591266" lon="5.278549"><time>2026-05-02T22:42:48Z</time></trkpt>
</trkseg></trk>
<trk>
<name>lvbff2</name>
<cmt>r</cmt>
<desc>Fize-Fontaine Chemin n°2 Rue Grande Ruelle / Rue Chalais</desc>
<link href="https://chemins.be/fizefontaine/chemin/2"/><trkseg>
<trkpt lat="50.591266" lon="5.278549"><time>2026-05-02T22:42:48Z</time></trkpt>
<trkpt lat="50.589578" lon="5.278305"><time>2026-05-02T22:52:48Z</time></trkpt>
<trkpt lat="50.588794" lon="5.280733"><time>2026-05-02T23:02:48Z</time></trkpt>
<trkpt lat="50.588316" lon="5.280978"><time>2026-05-02T23:12:48Z</time></trkpt>
<trkpt lat="50.587324" lon="5.282540"><time>2026-05-02T23:22:48Z</time></trkpt>
<trkpt lat="50.586066" lon="5.282488"><time>2026-05-02T23:32:48Z</time></trkpt>
<trkpt lat="50.585313" lon="5.283334"><time>2026-05-02T23:42:48Z</time></trkpt>
<trkpt lat="50.584788" lon="5.282576"><time>2026-05-02T23:52:48Z</time></trkpt>
<trkpt lat="50.584382" lon="5.282738"><time>2026-05-03T00:02:48Z</time></trkpt>
<trkpt lat="50.583846" lon="5.282374"><time>2026-05-03T00:12:48Z</time></trkpt>
<trkpt lat="50.583153" lon="5.282445"><time>2026-05-03T00:22:48Z</time></trkpt>
<trkpt lat="50.582634" lon="5.282139"><time>2026-05-03T00:32:48Z</time></trkpt>
<trkpt lat="50.581327" lon="5.282523"><time>2026-05-03T00:42:48Z</time></trkpt>
<trkpt lat="50.580023" lon="5.283740"><time>2026-05-03T00:52:48Z</time></trkpt>
<trkpt lat="50.578790" lon="5.286159"><time>2026-05-03T01:02:48Z</time></trkpt>
<trkpt lat="50.577740" lon="5.287043"><time>2026-05-03T01:12:48Z</time></trkpt>
<trkpt lat="50.576342" lon="5.287651"><time>2026-05-03T01:22:48Z</time></trkpt>
<trkpt lat="50.575047" lon="5.288868"><time>2026-05-03T01:32:48Z</time></trkpt>
</trkseg></trk>
<trk>
<name>lvbff2</name>
<cmt>v</cmt>
<desc>Fize-Fontaine Chemin n°2 Rue Grande Ruelle / Rue Chalais</desc>
<link href="https://chemins.be/fizefontaine/chemin/2"/><trkseg>
<trkpt lat="50.575047" lon="5.288868"><time>2026-05-03T01:32:48Z</time></trkpt>
<trkpt lat="50.574464" lon="5.288659"><time>2026-05-03T01:42:48Z</time></trkpt>
<trkpt lat="50.574312" lon="5.287399"><time>2026-05-03T01:52:48Z</time></trkpt>
</trkseg>
</trk>
</gpx>